Time;durP1;ratioP1;P1;durP2;ratioP2;P2;SDS_P1;SDS_P2;PMS_P1;PMS_P2;Temp;Humidity;BMP_temperature;BMP_pressure;BME280_temperature;BME280_humidity;BME280_pressure;Samples;Min_cycle;Max_cycle;Signal;HPM_P1;HPM_P2
2020/12/08 00:02:05;;;;;;;;;;;7.00;78.30;;;;;;4835180;29;117532;-87
2020/12/08 00:04:30;;;;;;;;;;;7.00;78.30;;;;;;4834759;29;121128;-87
2020/12/08 00:06:56;;;;;;;;;;;7.00;78.40;;;;;;4834934;29;119184;-87
2020/12/08 00:09:21;;;;;;;;;;;7.00;78.30;;;;;;4836309;29;117592;-87
2020/12/08 00:11:47;;;;;;;;;;;7.00;78.30;;;;;;4836136;29;117725;-87
2020/12/08 00:14:13;;;;;;;;;;;7.00;78.40;;;;;;4835545;29;118657;-87
2020/12/08 00:16:39;;;;;;;;;;;7.00;78.30;;;;;;4835337;29;119980;-87
2020/12/08 00:19:05;;;;;;;;;;;7.00;78.30;;;;;;4836058;29;117481;-87
2020/12/08 00:21:31;;;;;;;;;;;7.00;78.30;;;;;;4836357;29;117765;-87
2020/12/08 00:23:56;;;;;;;;;;;7.00;78.30;;;;;;4819843;29;121700;-87
2020/12/08 00:26:22;;;;;;;;;;;7.00;78.30;;;;;;4835104;29;120257;-87
2020/12/08 00:28:47;;;;;;;;;;;7.00;78.30;;;;;;4835732;29;117727;-87
2020/12/08 00:31:13;;;;;;;;;;;7.00;78.30;;;;;;4835683;29;117817;-87
2020/12/08 00:33:38;;;;;;;;;;;7.00;78.30;;;;;;4834531;29;129498;-87
2020/12/08 00:36:04;;;;;;;;;;;7.00;78.30;;;;;;4835080;29;119597;-87
2020/12/08 00:38:29;;;;;;;;;;;7.00;78.30;;;;;;4836057;29;117459;-87
2020/12/08 00:40:55;;;;;;;;;;;7.00;78.30;;;;;;4835899;29;117916;-86
2020/12/08 00:43:20;;;;;;;;;;;7.00;78.30;;;;;;4834863;29;121186;-86
2020/12/08 00:45:46;;;;;;;;;;;7.00;78.30;;;;;;4834847;29;119448;-86
2020/12/08 00:48:12;;;;;;;;;;;7.00;78.30;;;;;;4835874;29;117408;-86
2020/12/08 00:50:37;;;;;;;;;;;7.00;78.20;;;;;;4820174;29;117966;-86
2020/12/08 00:53:03;;;;;;;;;;;7.00;78.20;;;;;;4834758;29;120209;-86
2020/12/08 00:55:28;;;;;;;;;;;7.00;78.10;;;;;;4834319;29;119648;-86
2020/12/08 00:57:54;;;;;;;;;;;7.00;78.10;;;;;;4835465;29;117260;-86
2020/12/08 01:00:20;;;;;;;;;;;7.00;78.00;;;;;;4835890;28;117844;-86
2020/12/08 01:02:45;;;;;;;;;;;7.00;78.00;;;;;;4834649;29;120260;-87
2020/12/08 01:05:11;;;;;;;;;;;7.00;78.00;;;;;;4834407;29;119153;-87
2020/12/08 01:07:37;;;;;;;;;;;7.00;78.10;;;;;;4819600;29;117731;-87
2020/12/08 01:10:03;;;;;;;;;;;7.00;78.00;;;;;;4835988;29;117460;-87
2020/12/08 01:12:28;;;;;;;;;;;6.90;77.90;;;;;;4834468;29;121156;-87
2020/12/08 01:14:54;;;;;;;;;;;7.00;78.00;;;;;;4833661;29;128746;-87
2020/12/08 01:17:19;;;;;;;;;;;6.90;78.00;;;;;;4835323;29;116973;-87
2020/12/08 01:19:45;;;;;;;;;;;7.00;78.10;;;;;;4835170;29;117908;-87
2020/12/08 01:22:10;;;;;;;;;;;6.90;78.00;;;;;;4834031;29;121115;-87
2020/12/08 01:24:36;;;;;;;;;;;6.90;78.00;;;;;;4818887;29;119398;-87
2020/12/08 01:27:01;;;;;;;;;;;6.90;78.00;;;;;;4835161;29;117491;-87
2020/12/08 01:29:27;;;;;;;;;;;7.00;78.10;;;;;;4820049;29;117467;-87
2020/12/08 01:31:52;;;;;;;;;;;7.00;78.00;;;;;;4834094;29;121118;-87
2020/12/08 01:34:18;;;;;;;;;;;7.00;78.10;;;;;;4834268;29;120305;-87
2020/12/08 01:36:43;;;;;;;;;;;6.90;78.00;;;;;;4835271;29;117600;-87
2020/12/08 01:39:09;;;;;;;;;;;7.00;78.00;;;;;;4835129;29;117904;-87
2020/12/08 01:41:34;;;;;;;;;;;7.00;78.00;;;;;;4834115;29;120121;-87
2020/12/08 01:44:00;;;;;;;;;;;7.00;78.00;;;;;;4833699;29;119507;-87
2020/12/08 01:46:25;;;;;;;;;;;7.00;78.00;;;;;;4834826;29;117453;-87
2020/12/08 01:48:51;;;;;;;;;;;7.00;78.00;;;;;;4819683;29;117356;-87
2020/12/08 01:51:17;;;;;;;;;;;6.90;78.00;;;;;;4833912;29;121443;-87
2020/12/08 01:53:43;;;;;;;;;;;7.00;78.00;;;;;;4834003;29;120217;-87
2020/12/08 01:56:09;;;;;;;;;;;7.00;78.00;;;;;;4819171;29;117510;-87
2020/12/08 01:58:34;;;;;;;;;;;7.00;78.00;;;;;;4835405;29;117526;-87
2020/12/08 02:01:00;;;;;;;;;;;7.00;78.00;;;;;;4833829;29;120429;-87
2020/12/08 02:03:26;;;;;;;;;;;7.00;78.00;;;;;;4833533;29;118877;-87
2020/12/08 02:05:52;;;;;;;;;;;6.90;78.00;;;;;;4834714;29;117507;-87
2020/12/08 02:08:30;;;;;;;;;;;7.00;78.00;;;;;;4834401;29;117623;-87
2020/12/08 02:10:55;;;;;;;;;;;6.90;77.90;;;;;;4833594;29;121280;-87
2020/12/08 02:13:21;;;;;;;;;;;7.00;78.00;;;;;;4833608;29;120243;-87
2020/12/08 02:15:46;;;;;;;;;;;7.00;78.00;;;;;;4834439;29;117651;-87
2020/12/08 02:18:12;;;;;;;;;;;7.00;78.00;;;;;;4834855;29;117957;-87
2020/12/08 02:20:38;;;;;;;;;;;7.00;78.00;;;;;;4833293;29;120107;-87
2020/12/08 02:23:03;;;;;;;;;;;7.00;77.90;;;;;;4833695;29;117913;-87
2020/12/08 02:25:29;;;;;;;;;;;7.00;77.90;;;;;;4833385;29;117533;-87
2020/12/08 02:27:54;;;;;;;;;;;6.90;77.80;;;;;;4834616;29;117587;-87
2020/12/08 02:30:20;;;;;;;;;;;7.00;77.90;;;;;;4833119;28;124797;-87
2020/12/08 02:32:45;;;;;;;;;;;6.90;77.90;;;;;;4832575;29;120526;-87
2020/12/08 02:35:11;;;;;;;;;;;7.00;77.90;;;;;;4833985;29;117613;-87
2020/12/08 02:37:36;;;;;;;;;;;6.90;77.90;;;;;;4834373;29;118144;-87
2020/12/08 02:40:05;;;;;;;;;;;7.00;77.90;;;;;;4833414;29;120988;-87
2020/12/08 02:42:30;;;;;;;;;;;7.00;77.90;;;;;;4833274;29;119560;-87
2020/12/08 02:44:56;;;;;;;;;;;6.90;77.80;;;;;;4833995;29;117307;-87
2020/12/08 02:47:22;;;;;;;;;;;6.90;77.80;;;;;;4834651;29;117360;-87
2020/12/08 02:49:47;;;;;;;;;;;6.90;77.80;;;;;;4833312;29;120211;-87
2020/12/08 02:52:13;;;;;;;;;;;6.90;77.80;;;;;;4832866;29;121053;-87
2020/12/08 02:54:38;;;;;;;;;;;6.90;77.80;;;;;;4833804;29;117491;-87
2020/12/08 02:57:07;;;;;;;;;;;6.90;77.80;;;;;;4833694;29;117879;-87
2020/12/08 02:59:32;;;;;;;;;;;6.90;77.80;;;;;;4833338;29;121259;-87
2020/12/08 03:01:58;;;;;;;;;;;6.90;77.80;;;;;;4832521;29;119847;-87
2020/12/08 03:04:24;;;;;;;;;;;7.00;77.90;;;;;;4833292;29;117439;-87
2020/12/08 03:06:49;;;;;;;;;;;7.00;77.80;;;;;;4834033;29;117865;-87
2020/12/08 03:09:15;;;;;;;;;;;7.00;77.80;;;;;;4832831;29;120487;-87
2020/12/08 03:11:40;;;;;;;;;;;7.00;77.80;;;;;;4832593;29;120883;-87
2020/12/08 03:14:07;;;;;;;;;;;6.90;77.80;;;;;;4833632;29;117487;-87
2020/12/08 03:16:33;;;;;;;;;;;6.90;77.80;;;;;;4834263;29;117334;-87
2020/12/08 03:18:59;;;;;;;;;;;6.90;77.80;;;;;;4832810;29;121170;-87
2020/12/08 03:21:24;;;;;;;;;;;6.90;77.80;;;;;;4832109;29;120297;-87
2020/12/08 03:23:49;;;;;;;;;;;6.90;77.80;;;;;;4833705;29;117604;-87
2020/12/08 03:26:19;;;;;;;;;;;6.90;77.80;;;;;;4833778;29;117482;-87
2020/12/08 03:28:44;;;;;;;;;;;6.90;77.80;;;;;;4832468;29;121611;-87
2020/12/08 03:31:10;;;;;;;;;;;6.90;77.80;;;;;;4816973;29;121203;-87
2020/12/08 03:33:35;;;;;;;;;;;6.90;77.80;;;;;;4833312;29;117487;-87
2020/12/08 03:36:01;;;;;;;;;;;6.90;78.40;;;;;;4833510;29;117434;-87
2020/12/08 03:38:26;;;;;;;;;;;6.90;77.80;;;;;;4832793;29;120382;-87
2020/12/08 03:40:52;;;;;;;;;;;6.90;77.70;;;;;;4832299;29;120590;-87
2020/12/08 03:43:17;;;;;;;;;;;6.90;77.80;;;;;;4833547;29;117252;-87
2020/12/08 03:45:43;;;;;;;;;;;6.90;77.80;;;;;;4833055;29;117505;-87
2020/12/08 03:48:08;;;;;;;;;;;6.90;77.80;;;;;;4832555;29;120414;-87
2020/12/08 03:50:34;;;;;;;;;;;6.90;77.70;;;;;;4832192;29;119294;-87
2020/12/08 03:52:59;;;;;;;;;;;6.90;77.80;;;;;;4833117;29;117551;-87
2020/12/08 03:55:25;;;;;;;;;;;6.90;77.80;;;;;;4833472;29;117741;-87
2020/12/08 03:57:50;;;;;;;;;;;6.90;77.80;;;;;;4832670;29;118815;-87
2020/12/08 04:00:16;;;;;;;;;;;6.90;77.70;;;;;;4832122;29;120920;-87
2020/12/08 04:02:41;;;;;;;;;;;6.90;77.80;;;;;;4833244;29;117643;-87
2020/12/08 04:05:06;;;;;;;;;;;6.90;77.80;;;;;;4833406;29;117738;-87
2020/12/08 04:07:32;;;;;;;;;;;6.90;77.80;;;;;;4832286;29;121441;-87
2020/12/08 04:09:57;;;;;;;;;;;6.90;77.80;;;;;;4831725;29;117717;-87
2020/12/08 04:12:23;;;;;;;;;;;6.90;77.80;;;;;;4832494;29;117357;-87
2020/12/08 04:14:48;;;;;;;;;;;6.90;77.80;;;;;;4833419;29;117665;-87
2020/12/08 04:17:20;;;;;;;;;;;6.90;77.80;;;;;;4832107;29;120461;-87
2020/12/08 04:19:46;;;;;;;;;;;6.90;77.70;;;;;;4832108;29;119635;-87
2020/12/08 04:22:11;;;;;;;;;;;6.90;77.80;;;;;;4832659;29;117411;-87
2020/12/08 04:24:37;;;;;;;;;;;6.90;77.80;;;;;;4833231;29;117510;-87
2020/12/08 04:27:02;;;;;;;;;;;6.90;77.80;;;;;;4832179;29;121069;-87
2020/12/08 04:29:28;;;;;;;;;;;6.90;77.80;;;;;;4831961;29;120690;-87
2020/12/08 04:31:53;;;;;;;;;;;6.90;77.70;;;;;;4817154;29;117360;-87
2020/12/08 04:34:19;;;;;;;;;;;6.90;78.30;;;;;;4816993;29;117881;-87
2020/12/08 04:36:44;;;;;;;;;;;6.90;77.80;;;;;;4831765;29;121182;-87
2020/12/08 04:39:10;;;;;;;;;;;6.90;77.80;;;;;;4831783;29;119700;-86
2020/12/08 04:41:35;;;;;;;;;;;6.90;77.80;;;;;;4832717;29;117419;-87
2020/12/08 04:44:01;;;;;;;;;;;6.90;77.70;;;;;;4832675;29;117355;-87
2020/12/08 04:46:26;;;;;;;;;;;6.90;77.70;;;;;;4831798;29;121323;-87
2020/12/08 04:48:52;;;;;;;;;;;6.90;77.70;;;;;;4833061;29;119717;-87
2020/12/08 04:51:18;;;;;;;;;;;6.90;77.70;;;;;;4820151;29;117320;-87
2020/12/08 04:53:45;;;;;;;;;;;6.90;77.70;;;;;;4835679;29;117783;-87
2020/12/08 04:56:10;;;;;;;;;;;6.90;77.80;;;;;;4835236;29;117629;-87
2020/12/08 04:58:36;;;;;;;;;;;6.90;77.80;;;;;;4834171;29;120646;-87
2020/12/08 05:01:01;;;;;;;;;;;6.80;77.70;;;;;;4835226;29;117567;-87
2020/12/08 05:03:27;;;;;;;;;;;6.90;77.70;;;;;;4835756;29;117774;-87
2020/12/08 05:05:53;;;;;;;;;;;6.90;77.70;;;;;;4834690;29;120129;-87
2020/12/08 05:08:18;;;;;;;;;;;6.80;77.70;;;;;;4834576;29;120334;-87
2020/12/08 05:10:44;;;;;;;;;;;6.90;77.70;;;;;;4835185;29;118000;-87
2020/12/08 05:13:20;;;;;;;;;;;6.90;77.60;;;;;;4835821;29;117851;-87
2020/12/08 05:15:58;;;;;;;;;;;6.90;77.60;;;;;;4834725;29;121331;-86
2020/12/08 05:18:24;;;;;;;;;;;6.90;77.60;;;;;;4834501;29;120900;-86
2020/12/08 05:20:49;;;;;;;;;;;6.80;77.60;;;;;;4835211;29;117664;-86
2020/12/08 05:23:15;;;;;;;;;;;6.90;77.60;;;;;;4835148;29;118024;-86
2020/12/08 05:25:40;;;;;;;;;;;6.80;77.60;;;;;;4834237;29;122324;-87
2020/12/08 05:28:06;;;;;;;;;;;6.80;77.50;;;;;;4834206;29;119205;-87
2020/12/08 05:30:32;;;;;;;;;;;6.80;77.50;;;;;;4834826;29;117814;-87
2020/12/08 05:32:57;;;;;;;;;;;6.80;77.50;;;;;;4835434;29;117893;-87
2020/12/08 05:35:23;;;;;;;;;;;6.90;77.50;;;;;;4834144;29;125760;-87
2020/12/08 05:37:50;;;;;;;;;;;6.90;77.50;;;;;;4834157;29;120689;-87
2020/12/08 05:40:17;;;;;;;;;;;6.90;77.50;;;;;;4835027;28;117630;-87
2020/12/08 05:42:47;;;;;;;;;;;6.90;77.50;;;;;;4835264;29;117755;-87
2020/12/08 05:45:13;;;;;;;;;;;6.80;77.50;;;;;;4833913;29;121110;-87
2020/12/08 05:47:40;;;;;;;;;;;6.80;77.40;;;;;;4833533;29;120647;-87
2020/12/08 05:50:06;;;;;;;;;;;6.90;77.50;;;;;;4835036;29;117611;-87
2020/12/08 05:52:32;;;;;;;;;;;6.90;77.40;;;;;;4835221;29;117611;-87
2020/12/08 05:55:07;;;;;;;;;;;6.90;77.40;;;;;;4833947;29;120105;-87
2020/12/08 05:57:33;;;;;;;;;;;6.90;77.40;;;;;;4834126;29;120593;-87
2020/12/08 05:59:59;;;;;;;;;;;6.80;77.40;;;;;;4834498;29;117491;-87
2020/12/08 06:02:28;;;;;;;;;;;6.90;77.40;;;;;;4834722;29;117607;-87
2020/12/08 06:04:54;;;;;;;;;;;6.80;77.40;;;;;;4833664;29;120647;-87
2020/12/08 06:07:32;;;;;;;;;;;6.80;77.30;;;;;;4833828;29;119325;-87
2020/12/08 06:10:07;;;;;;;;;;;6.80;77.40;;;;;;4834810;29;117291;-87
2020/12/08 06:12:33;;;;;;;;;;;6.80;77.40;;;;;;4834245;29;117918;-87
2020/12/08 06:14:58;;;;;;;;;;;6.80;77.40;;;;;;4834150;29;117645;-86
2020/12/08 06:17:24;;;;;;;;;;;6.80;77.40;;;;;;4833688;29;119183;-86
2020/12/08 06:19:49;;;;;;;;;;;6.80;77.30;;;;;;4834533;29;117792;-86
2020/12/08 06:22:15;;;;;;;;;;;6.80;77.40;;;;;;4819165;29;117792;-86
2020/12/08 06:24:48;;;;;;;;;;;6.80;77.40;;;;;;4833488;29;120325;-87
2020/12/08 06:27:20;;;;;;;;;;;6.80;77.40;;;;;;4833539;29;120501;-87
2020/12/08 06:29:55;;;;;;;;;;;6.80;77.30;;;;;;4834449;29;117508;-87
2020/12/08 06:32:25;;;;;;;;;;;6.80;77.20;;;;;;4834539;29;117949;-87
2020/12/08 06:34:50;;;;;;;;;;;6.80;77.30;;;;;;4833345;29;120371;-87
2020/12/08 06:37:16;;;;;;;;;;;6.80;77.20;;;;;;4832680;29;119506;-87
2020/12/08 06:39:41;;;;;;;;;;;6.80;77.20;;;;;;4834086;29;117610;-87
2020/12/08 06:42:13;;;;;;;;;;;6.80;77.20;;;;;;4834265;29;117969;-87
2020/12/08 06:44:38;;;;;;;;;;;6.80;77.20;;;;;;4833527;29;117549;-87
2020/12/08 06:47:04;;;;;;;;;;;6.80;77.20;;;;;;4817768;29;119471;-87
2020/12/08 06:49:36;;;;;;;;;;;6.80;77.20;;;;;;4834008;29;117546;-87
2020/12/08 06:52:02;;;;;;;;;;;6.80;77.20;;;;;;4834298;29;117726;-87
2020/12/08 06:54:28;;;;;;;;;;;6.80;77.10;;;;;;4833452;29;118849;-87
2020/12/08 06:56:58;;;;;;;;;;;6.80;77.20;;;;;;4833137;29;120376;-87
2020/12/08 06:59:24;;;;;;;;;;;6.80;77.20;;;;;;4818551;29;117319;-87
2020/12/08 07:01:53;;;;;;;;;;;6.80;77.10;;;;;;4833422;29;117468;-87
2020/12/08 07:04:18;;;;;;;;;;;6.80;77.10;;;;;;4832825;29;121362;-87
2020/12/08 07:06:44;;;;;;;;;;;6.80;77.10;;;;;;4833280;29;120591;-87
2020/12/08 07:09:10;;;;;;;;;;;6.80;77.10;;;;;;4818210;29;117551;-87
2020/12/08 07:11:35;;;;;;;;;;;6.80;77.20;;;;;;4833872;29;117803;-87
2020/12/08 07:14:01;;;;;;;;;;;6.80;77.10;;;;;;4832969;29;120270;-87
2020/12/08 07:16:27;;;;;;;;;;;6.80;77.10;;;;;;4832856;29;120580;-87
2020/12/08 07:18:53;;;;;;;;;;;6.80;77.10;;;;;;4818345;29;117633;-87
2020/12/08 07:21:19;;;;;;;;;;;6.80;77.20;;;;;;4833887;29;117521;-87
2020/12/08 07:23:45;;;;;;;;;;;6.70;77.10;;;;;;4832803;29;120172;-87
2020/12/08 07:26:12;;;;;;;;;;;6.80;77.20;;;;;;4832275;29;119260;-87
2020/12/08 07:28:37;;;;;;;;;;;6.80;77.10;;;;;;4833550;29;117523;-86
2020/12/08 07:31:03;;;;;;;;;;;6.80;77.10;;;;;;4833727;29;118013;-86
2020/12/08 07:33:31;;;;;;;;;;;6.80;77.10;;;;;;4832509;29;120439;-86
2020/12/08 07:35:57;;;;;;;;;;;6.80;77.10;;;;;;4832638;29;120118;-86
2020/12/08 07:38:23;;;;;;;;;;;6.80;77.10;;;;;;4833387;29;117507;-86
2020/12/08 07:40:48;;;;;;;;;;;6.80;77.10;;;;;;4833380;29;117861;-86
2020/12/08 07:43:14;;;;;;;;;;;6.80;77.10;;;;;;4817323;29;121271;-86
2020/12/08 07:45:43;;;;;;;;;;;6.80;77.10;;;;;;4832248;29;120362;-86
2020/12/08 07:48:09;;;;;;;;;;;6.80;77.00;;;;;;4833358;29;117490;-86
2020/12/08 07:50:35;;;;;;;;;;;6.80;77.10;;;;;;4832580;29;117723;-86
2020/12/08 07:53:04;;;;;;;;;;;6.80;77.00;;;;;;4831904;29;127039;-87
2020/12/08 07:55:30;;;;;;;;;;;6.70;77.00;;;;;;4832285;29;120976;-87
2020/12/08 07:57:56;;;;;;;;;;;6.70;77.00;;;;;;4833100;29;117532;-86
2020/12/08 08:00:21;;;;;;;;;;;6.80;77.00;;;;;;4817715;29;117327;-86
2020/12/08 08:02:47;;;;;;;;;;;6.70;77.00;;;;;;4832100;29;120318;-87
2020/12/08 08:05:13;;;;;;;;;;;6.80;77.00;;;;;;4832031;29;120434;-87
2020/12/08 08:07:38;;;;;;;;;;;6.70;77.00;;;;;;4833138;29;117643;-87
2020/12/08 08:10:10;;;;;;;;;;;6.70;76.90;;;;;;4833295;29;117948;-90
2020/12/08 08:12:35;;;;;;;;;;;6.70;76.90;;;;;;4847545;29;121828;-90
2020/12/08 08:15:01;;;;;;;;;;;6.70;77.00;;;;;;4831278;29;120781;-88
2020/12/08 08:17:26;;;;;;;;;;;6.70;77.00;;;;;;4832900;29;117538;-89
2020/12/08 08:19:52;;;;;;;;;;;6.70;77.00;;;;;;4833388;29;116992;-88
2020/12/08 08:22:17;;;;;;;;;;;6.70;76.90;;;;;;4831831;29;120403;-88
2020/12/08 08:24:43;;;;;;;;;;;6.70;76.90;;;;;;4834446;29;119590;-88
2020/12/08 08:27:08;;;;;;;;;;;6.70;77.00;;;;;;4836383;29;117697;-88
2020/12/08 08:29:34;;;;;;;;;;;6.70;77.00;;;;;;4836543;29;117900;-88
2020/12/08 08:31:59;;;;;;;;;;;6.70;76.90;;;;;;4835370;29;120370;-88
2020/12/08 08:34:25;;;;;;;;;;;6.70;77.00;;;;;;4835394;29;117759;-88
2020/12/08 08:36:51;;;;;;;;;;;6.70;77.00;;;;;;4835947;29;117607;-88
2020/12/08 08:39:16;;;;;;;;;;;6.70;77.00;;;;;;4835723;29;117801;-88
2020/12/08 08:41:42;;;;;;;;;;;6.70;77.00;;;;;;4835302;29;117790;-88
2020/12/08 08:44:07;;;;;;;;;;;6.70;76.90;;;;;;4835002;29;120637;-88
2020/12/08 08:46:33;;;;;;;;;;;6.70;77.00;;;;;;4835999;29;117704;-88
2020/12/08 08:48:58;;;;;;;;;;;6.70;76.90;;;;;;4836214;29;117879;-88
2020/12/08 08:51:24;;;;;;;;;;;6.70;76.90;;;;;;4819435;29;120097;-87
2020/12/08 08:53:49;;;;;;;;;;;6.70;77.00;;;;;;4834839;29;120316;-87
2020/12/08 08:56:17;;;;;;;;;;;6.70;77.00;;;;;;4835931;29;117678;-87
2020/12/08 08:58:43;;;;;;;;;;;6.70;77.00;;;;;;4836068;29;117831;-87
2020/12/08 09:01:08;;;;;;;;;;;6.70;77.00;;;;;;4834531;29;119939;-87
2020/12/08 09:03:34;;;;;;;;;;;6.70;77.00;;;;;;4833718;29;120796;-87
2020/12/08 09:05:59;;;;;;;;;;;6.70;77.00;;;;;;4835487;29;117552;-88
2020/12/08 09:08:25;;;;;;;;;;;6.70;76.90;;;;;;4835886;29;118013;-88
2020/12/08 09:10:51;;;;;;;;;;;6.70;77.00;;;;;;4834275;29;121367;-88
2020/12/08 09:13:16;;;;;;;;;;;6.70;77.00;;;;;;4834612;29;120495;-88
2020/12/08 09:15:42;;;;;;;;;;;6.70;77.00;;;;;;4835460;29;117636;-88
2020/12/08 09:18:08;;;;;;;;;;;6.70;77.00;;;;;;4835745;29;117568;-87
2020/12/08 09:20:33;;;;;;;;;;;6.70;77.00;;;;;;4818964;28;120292;-87
2020/12/08 09:22:59;;;;;;;;;;;6.70;77.00;;;;;;4819093;29;119198;-87
2020/12/08 09:25:27;;;;;;;;;;;6.70;77.50;;;;;;4835323;29;117367;-87
2020/12/08 09:27:53;;;;;;;;;;;6.70;76.90;;;;;;4835481;29;117840;-87
2020/12/08 09:30:18;;;;;;;;;;;6.70;76.80;;;;;;4834044;28;120178;-87
2020/12/08 09:32:44;;;;;;;;;;;6.70;76.80;;;;;;4834220;29;120984;-87
2020/12/08 09:35:09;;;;;;;;;;;6.70;76.80;;;;;;4834547;29;118108;-87
2020/12/08 09:37:35;;;;;;;;;;;6.70;76.80;;;;;;4819812;29;117728;-87
2020/12/08 09:40:00;;;;;;;;;;;6.70;76.80;;;;;;4834598;29;120170;-87
2020/12/08 09:42:26;;;;;;;;;;;6.70;77.40;;;;;;4833923;29;118887;-87
2020/12/08 09:44:51;;;;;;;;;;;6.70;76.80;;;;;;4835225;29;117377;-87
2020/12/08 09:47:17;;;;;;;;;;;6.70;76.80;;;;;;4835328;29;117493;-87
2020/12/08 09:49:43;;;;;;;;;;;6.80;76.80;;;;;;4834657;29;117603;-87
2020/12/08 09:52:08;;;;;;;;;;;6.70;76.80;;;;;;4817806;29;119016;-87
2020/12/08 09:54:34;;;;;;;;;;;6.80;76.80;;;;;;4819206;29;117486;-89
2020/12/08 09:57:00;;;;;;;;;;;6.80;76.70;;;;;;4835274;29;117765;-91
2020/12/08 09:59:25;;;;;;;;;;;6.70;76.70;;;;;;4833766;29;121091;-88
2020/12/08 10:01:51;;;;;;;;;;;6.70;76.70;;;;;;4833574;29;119176;-88
2020/12/08 10:04:16;;;;;;;;;;;6.80;76.70;;;;;;4834576;29;117402;-87
2020/12/08 10:06:42;;;;;;;;;;;6.70;76.70;;;;;;4834844;29;117382;-87
2020/12/08 10:09:07;;;;;;;;;;;6.80;76.70;;;;;;4834030;29;120366;-87
2020/12/08 10:11:33;;;;;;;;;;;6.70;76.70;;;;;;4833600;29;120561;-87
2020/12/08 10:13:58;;;;;;;;;;;6.70;76.70;;;;;;4834369;29;117607;-87
2020/12/08 10:16:24;;;;;;;;;;;6.70;76.70;;;;;;4818996;29;117930;-87
2020/12/08 10:18:50;;;;;;;;;;;6.70;76.60;;;;;;4833701;29;118957;-87
2020/12/08 10:21:25;;;;;;;;;;;6.80;76.70;;;;;;4833264;29;120403;-87
2020/12/08 10:23:50;;;;;;;;;;;6.70;76.80;;;;;;4834513;29;117491;-87
2020/12/08 10:26:16;;;;;;;;;;;6.70;76.70;;;;;;4834762;29;117569;-87
2020/12/08 10:28:41;;;;;;;;;;;6.70;76.70;;;;;;4817803;29;121224;-88
2020/12/08 10:31:07;;;;;;;;;;;6.70;76.70;;;;;;4833173;29;119541;-88
2020/12/08 10:33:32;;;;;;;;;;;6.70;76.80;;;;;;4834299;29;119279;-88
2020/12/08 10:35:58;;;;;;;;;;;6.80;76.80;;;;;;4834484;29;117629;-88
2020/12/08 10:38:24;;;;;;;;;;;6.70;76.80;;;;;;4833367;29;121557;-88
2020/12/08 10:40:50;;;;;;;;;;;6.70;76.70;;;;;;4832412;29;119255;-88
2020/12/08 10:43:17;;;;;;;;;;;6.70;76.70;;;;;;4834374;29;117429;-88
2020/12/08 10:45:43;;;;;;;;;;;6.70;76.70;;;;;;4833746;29;117397;-90
2020/12/08 10:48:08;;;;;;;;;;;6.70;76.70;;;;;;4832995;29;120277;-88
2020/12/08 10:50:34;;;;;;;;;;;6.70;76.70;;;;;;4817557;28;121577;-89
2020/12/08 10:52:59;;;;;;;;;;;6.70;76.70;;;;;;4834183;29;117532;-89
2020/12/08 10:55:25;;;;;;;;;;;6.70;76.80;;;;;;4834177;29;117540;-89
2020/12/08 10:58:18;;;;;;;;;;;6.70;76.70;;;;;;5107066;27;117455;-88
2020/12/08 11:00:43;;;;;;;;;;;6.70;76.80;;;;;;5087231;27;117393;-88
2020/12/08 11:03:09;;;;;;;;;;;6.70;76.70;;;;;;5070434;27;117326;-88
2020/12/08 11:05:34;;;;;;;;;;;6.70;76.80;;;;;;5068785;27;120884;-88
2020/12/08 11:08:00;;;;;;;;;;;6.70;76.80;;;;;;5068777;27;119402;-88
2020/12/08 11:10:25;;;;;;;;;;;6.70;76.70;;;;;;5069558;27;117344;-88
2020/12/08 11:12:51;;;;;;;;;;;6.70;76.70;;;;;;5069950;27;117776;-88
2020/12/08 11:15:16;;;;;;;;;;;6.70;76.80;;;;;;5068703;27;120783;-88
2020/12/08 11:17:42;;;;;;;;;;;6.70;76.70;;;;;;5068655;27;120643;-88
2020/12/08 11:20:08;;;;;;;;;;;6.70;76.70;;;;;;5070054;27;117511;-88
2020/12/08 11:22:33;;;;;;;;;;;6.70;76.80;;;;;;5069665;27;117824;-88
2020/12/08 11:24:59;;;;;;;;;;;6.70;76.70;;;;;;5068210;27;120694;-88
2020/12/08 11:27:24;;;;;;;;;;;6.70;76.70;;;;;;5068648;27;119347;-88
2020/12/08 11:29:50;;;;;;;;;;;6.70;76.80;;;;;;5069591;27;116857;-88
2020/12/08 11:32:15;;;;;;;;;;;6.70;76.80;;;;;;5069419;27;117761;-88
2020/12/08 11:34:41;;;;;;;;;;;6.70;76.70;;;;;;5068646;27;120396;-88
2020/12/08 11:37:07;;;;;;;;;;;6.70;76.70;;;;;;5068410;27;120056;-88
2020/12/08 11:39:33;;;;;;;;;;;6.70;76.70;;;;;;5069516;27;117432;-88
2020/12/08 11:41:58;;;;;;;;;;;6.70;76.70;;;;;;5069605;27;118302;-87
2020/12/08 11:44:24;;;;;;;;;;;6.70;76.70;;;;;;5068715;27;119716;-88
2020/12/08 11:46:50;;;;;;;;;;;6.70;76.80;;;;;;5068797;27;120310;-87
2020/12/08 11:49:16;;;;;;;;;;;6.70;76.70;;;;;;5069296;27;117560;-88
2020/12/08 11:51:42;;;;;;;;;;;6.70;76.70;;;;;;5070132;27;117868;-88
2020/12/08 11:54:07;;;;;;;;;;;6.70;76.70;;;;;;5068691;27;120060;-88
2020/12/08 11:56:32;;;;;;;;;;;6.70;76.70;;;;;;5068688;27;119144;-88
2020/12/08 11:58:58;;;;;;;;;;;6.70;76.80;;;;;;5070322;27;117552;-88
2020/12/08 12:01:24;;;;;;;;;;;6.70;76.70;;;;;;5070108;27;117449;-88
2020/12/08 12:03:49;;;;;;;;;;;6.70;76.70;;;;;;5069055;27;120328;-86
2020/12/08 12:06:15;;;;;;;;;;;6.70;76.70;;;;;;5069376;27;119209;-86
2020/12/08 12:08:40;;;;;;;;;;;6.70;76.70;;;;;;5063227;27;117291;-86
2020/12/08 12:11:09;;;;;;;;;;;6.70;76.70;;;;;;5057029;27;117778;-86
2020/12/08 12:13:34;;;;;;;;;;;6.70;76.70;;;;;;5055536;27;121004;-87
2020/12/08 12:16:00;;;;;;;;;;;6.70;76.70;;;;;;5055110;27;119858;-86
2020/12/08 12:18:25;;;;;;;;;;;6.70;77.30;;;;;;5056327;27;117699;-86
2020/12/08 12:20:51;;;;;;;;;;;6.70;76.70;;;;;;5055862;27;117834;-86
2020/12/08 12:23:16;;;;;;;;;;;6.70;76.70;;;;;;5054834;27;121319;-86
2020/12/08 12:25:42;;;;;;;;;;;6.70;76.70;;;;;;5072112;27;117604;-86
2020/12/08 12:28:08;;;;;;;;;;;6.70;76.80;;;;;;5072758;27;117525;-86
2020/12/08 12:30:33;;;;;;;;;;;6.70;76.70;;;;;;5055308;27;117773;-86
2020/12/08 12:32:59;;;;;;;;;;;6.70;76.70;;;;;;5054040;27;120324;-87
2020/12/08 12:35:24;;;;;;;;;;;6.70;76.70;;;;;;5054142;27;120721;-89
2020/12/08 12:37:50;;;;;;;;;;;6.70;76.70;;;;;;5072869;27;117525;-87
2020/12/08 12:40:15;;;;;;;;;;;6.70;77.30;;;;;;5054679;27;117667;-87
2020/12/08 12:42:41;;;;;;;;;;;6.70;76.70;;;;;;5053617;27;122140;-87
2020/12/08 12:45:06;;;;;;;;;;;6.70;76.80;;;;;;5053569;27;119314;-87
2020/12/08 12:47:32;;;;;;;;;;;6.70;76.70;;;;;;5054737;27;117310;-87
2020/12/08 12:49:57;;;;;;;;;;;6.70;76.70;;;;;;5054865;27;117866;-87
2020/12/08 12:52:23;;;;;;;;;;;6.70;76.70;;;;;;5070876;27;118659;-87
2020/12/08 12:54:48;;;;;;;;;;;6.70;76.70;;;;;;5053628;27;119178;-87
2020/12/08 12:57:14;;;;;;;;;;;6.70;76.70;;;;;;5071263;27;117419;-87
2020/12/08 12:59:40;;;;;;;;;;;6.70;76.70;;;;;;5072103;27;117815;-87
2020/12/08 13:02:06;;;;;;;;;;;6.70;76.70;;;;;;5053104;27;118637;-87
2020/12/08 13:04:32;;;;;;;;;;;6.70;76.70;;;;;;5053632;27;119348;-87
2020/12/08 13:06:57;;;;;;;;;;;6.70;76.70;;;;;;5071741;27;117533;-87
2020/12/08 13:09:23;;;;;;;;;;;6.70;76.70;;;;;;5054486;27;117872;-87
2020/12/08 13:11:49;;;;;;;;;;;6.70;76.70;;;;;;5053083;27;120504;-87
2020/12/08 13:14:14;;;;;;;;;;;6.70;76.70;;;;;;5053176;27;120149;-87
2020/12/08 13:16:40;;;;;;;;;;;6.70;76.70;;;;;;5054165;27;117859;-87
2020/12/08 13:19:05;;;;;;;;;;;6.70;76.60;;;;;;5071743;27;117722;-87
2020/12/08 13:21:31;;;;;;;;;;;6.70;76.60;;;;;;5052077;27;120977;-87
2020/12/08 13:23:56;;;;;;;;;;;6.70;76.70;;;;;;5053147;27;119238;-87
2020/12/08 13:26:22;;;;;;;;;;;6.70;76.60;;;;;;5054019;27;117488;-87
2020/12/08 13:28:47;;;;;;;;;;;6.70;76.50;;;;;;5054316;27;117881;-87
2020/12/08 13:31:13;;;;;;;;;;;6.70;76.60;;;;;;5052604;27;121133;-87
2020/12/08 13:33:38;;;;;;;;;;;6.70;76.60;;;;;;5052777;27;121203;-87
2020/12/08 13:36:04;;;;;;;;;;;6.70;76.70;;;;;;5054001;27;117563;-87
2020/12/08 13:38:30;;;;;;;;;;;6.60;76.60;;;;;;5053977;27;118055;-87
2020/12/08 13:40:55;;;;;;;;;;;6.70;76.70;;;;;;5052622;27;120090;-87
2020/12/08 13:43:21;;;;;;;;;;;6.70;76.70;;;;;;5052658;27;119023;-87
2020/12/08 13:45:47;;;;;;;;;;;6.70;76.70;;;;;;5054220;27;117586;-87
2020/12/08 13:48:12;;;;;;;;;;;6.70;76.70;;;;;;5053915;27;117864;-86
2020/12/08 13:50:38;;;;;;;;;;;6.70;76.70;;;;;;5052519;27;120424;-87
2020/12/08 13:53:09;;;;;;;;;;;6.70;76.70;;;;;;5052456;27;120040;-87
2020/12/08 13:55:35;;;;;;;;;;;6.70;76.70;;;;;;5054928;27;117962;-87
2020/12/08 13:58:01;;;;;;;;;;;6.70;76.70;;;;;;5053361;27;117818;-87
2020/12/08 14:00:26;;;;;;;;;;;6.70;76.70;;;;;;5052314;27;121207;-87
2020/12/08 14:02:52;;;;;;;;;;;6.70;76.70;;;;;;5069920;27;118010;-87
2020/12/08 14:05:17;;;;;;;;;;;6.70;76.70;;;;;;5053457;27;117478;-87
2020/12/08 14:07:43;;;;;;;;;;;6.70;77.30;;;;;;5053823;27;117364;-87
2020/12/08 14:10:09;;;;;;;;;;;6.70;76.70;;;;;;5069896;27;118679;-87